Ellsworth, ME

7:56 AM EDT on June 03, 2015 (GMT -0400)
Dollard Hill | | Change Station
CLOSE
Current Station
Personal Weather Station
Location: Ellsworth, ME
Elevation: 486 ft
Nearby Weather Stations

Elev 486 ft 44.55 °N, 68.51 °W | Updated 52 seconds ago

Overcast
Overcast
47.4 °F
Feels Like 47 °F
N
2.8
Wind Variable Wind from NNW
Gusts 12.0 mph

Today
High -- | Low -- °F
--% Chance of Precip.
Yesterday
High -- | Low -- °F
Precip. -- in
4:51 AM 8:13 PM
Full, 99% visible
Pressure 30.20 in
Visibility 10.0 miles
Clouds Few 1500 ft
Windchill 47 °F
Dew Point 46 °F
Humidity 95%
Rainfall 0.00 in
Snow Depth Not available.
UV 2 out of 12
Pollen 7.00 out of 12
Air Quality Not available.
Flu Activity Regional
METAR KBHB 031135Z AUTO 32005KT 10SM FEW015 09/07 A3020 RMK AO1

More Conditions Fewer Conditions

Pressure 30.20 in
Visibility 10.0 miles
Clouds Few 1500 ft
Windchill 47 °F
Dew Point 46 °F
Humidity 95%
Rainfall 0.00 in
Snow Depth Not available.
UV 2 out of 12
Pollen 7.00 out of 12
Air Quality Not available.
Flu Activity Regional
METAR KBHB 031135Z AUTO 32005KT 10SM FEW015 09/07 A3020 RMK AO1

More Conditions Fewer Conditions

10-Day Weather Forecast

×

Almanac

Astronomy

Jun. 03, 2015 Rise Set
Actual Time
Civil Twilight
Nautical Twilight
Astronomical Twilight
Moon
Length of Visible Light
Length of Day
Tomorrow will be .
, % of the Moon is Illuminated

Today's Extremes

State Highs State Lows

Community

WunderPhotos

Upload Photos

1,826,205 photos uploaded!

WunderBlogs® & News

Nearby

Air Quality

  Air Quality AQ Index Pollutant
Not available.

Snow Depth

Station Depth Elevation

Earthquake Activity

City Distance Mag. Time & Date
Minimum magnitude displayed is 2.5.

Coastal Water Temperatures

Place Temperature

Stations

Nearby Weather Stations

Station Location Temp. Windchill Dew Point Humidity Wind Precip. Elev Updated Type